Ludlow, Illinois
Current Conditions -  °F | °C
As of 4:30 PM on Friday 24 Oct 2014 (Local Time) from KTIP Reporting Station
Clear Clear  
Wind Chill: 21°   Ceiling: Unl
Heat Index: 21°   Visibility: 10mi
Dew Point: 10°   Wind: 10mph
Humidity: 50%   Direction: 230°SW
Pressure: 30"   Gusts: NA
Location:  40.39°N, 88.13°W
Report Text: KTIP 242130Z AUTO 23009KT 10SM CLR 21/10 A3000 RMK AO2 T02080101
Loading
Personal Weather Stations






























Interactive Weather Map
Tropical Storm Tracking
New forecast layout! Learn more

10-Day Weather Forecast

Advertisements
Track Severe Weather on mobile